sensor_id;sensor_type;location;lat;lon;timestamp;temperature;humidity
26954;DHT22;14508;50.924;11.600;2023-03-20T00:00:50;10.10;99.90
26954;DHT22;14508;50.924;11.600;2023-03-20T00:03:19;10.00;99.90
26954;DHT22;14508;50.924;11.600;2023-03-20T00:05:47;9.90;99.90
26954;DHT22;14508;50.924;11.600;2023-03-20T00:08:17;9.90;99.90
26954;DHT22;14508;50.924;11.600;2023-03-20T00:10:45;9.90;99.90
26954;DHT22;14508;50.924;11.600;2023-03-20T00:13:15;9.90;99.90
26954;DHT22;14508;50.924;11.600;2023-03-20T00:15:48;9.80;99.90
26954;DHT22;14508;50.924;11.600;2023-03-20T00:18:17;9.80;99.90
26954;DHT22;14508;50.924;11.600;2023-03-20T00:20:47;9.80;99.90
26954;DHT22;14508;50.924;11.600;2023-03-20T00:23:16;9.80;99.90
26954;DHT22;14508;50.924;11.600;2023-03-20T00:25:45;9.80;99.90
26954;DHT22;14508;50.924;11.600;2023-03-20T00:28:29;9.70;99.90
26954;DHT22;14508;50.924;11.600;2023-03-20T00:31:04;9.70;99.90
26954;DHT22;14508;50.924;11.600;2023-03-20T00:33:32;9.70;99.90
26954;DHT22;14508;50.924;11.600;2023-03-20T00:36:02;9.60;99.90
26954;DHT22;14508;50.924;11.600;2023-03-20T00:38:32;9.60;99.90
26954;DHT22;14508;50.924;11.600;2023-03-20T00:41:00;9.60;99.90
26954;DHT22;14508;50.924;11.600;2023-03-20T00:43:27;9.50;99.90
26954;DHT22;14508;50.924;11.600;2023-03-20T00:45:55;9.50;99.90
26954;DHT22;14508;50.924;11.600;2023-03-20T00:48:23;9.50;99.90
26954;DHT22;14508;50.924;11.600;2023-03-20T00:50:51;9.50;99.90
26954;DHT22;14508;50.924;11.600;2023-03-20T00:53:20;9.40;99.90
26954;DHT22;14508;50.924;11.600;2023-03-20T00:55:48;9.30;99.90
26954;DHT22;14508;50.924;11.600;2023-03-20T00:58:16;9.30;99.90
26954;DHT22;14508;50.924;11.600;2023-03-20T01:00:45;9.30;99.90
26954;DHT22;14508;50.924;11.600;2023-03-20T01:03:15;9.30;99.90
26954;DHT22;14508;50.924;11.600;2023-03-20T01:05:46;9.20;99.90
26954;DHT22;14508;50.924;11.600;2023-03-20T01:08:16;9.20;99.90
26954;DHT22;14508;50.924;11.600;2023-03-20T01:10:47;9.20;99.90
26954;DHT22;14508;50.924;11.600;2023-03-20T01:13:19;9.20;99.90
26954;DHT22;14508;50.924;11.600;2023-03-20T01:15:49;9.20;99.90
26954;DHT22;14508;50.924;11.600;2023-03-20T01:18:19;9.10;99.90
26954;DHT22;14508;50.924;11.600;2023-03-20T01:20:48;9.10;99.90
26954;DHT22;14508;50.924;11.600;2023-03-20T01:23:19;9.10;99.90
26954;DHT22;14508;50.924;11.600;2023-03-20T01:25:49;9.10;99.90
26954;DHT22;14508;50.924;11.600;2023-03-20T01:28:20;9.10;99.90
26954;DHT22;14508;50.924;11.600;2023-03-20T01:30:49;9.10;99.90
26954;DHT22;14508;50.924;11.600;2023-03-20T01:33:21;9.10;99.90
26954;DHT22;14508;50.924;11.600;2023-03-20T01:35:52;9.00;99.90
26954;DHT22;14508;50.924;11.600;2023-03-20T01:38:23;9.00;99.90
26954;DHT22;14508;50.924;11.600;2023-03-20T01:40:56;9.00;99.90
26954;DHT22;14508;50.924;11.600;2023-03-20T01:43:28;9.00;99.90
26954;DHT22;14508;50.924;11.600;2023-03-20T01:46:00;9.00;99.90
26954;DHT22;14508;50.924;11.600;2023-03-20T01:48:54;9.00;99.90
26954;DHT22;14508;50.924;11.600;2023-03-20T01:51:25;9.00;99.90
26954;DHT22;14508;50.924;11.600;2023-03-20T01:54:00;9.00;99.90
26954;DHT22;14508;50.924;11.600;2023-03-20T01:56:39;9.00;99.90
26954;DHT22;14508;50.924;11.600;2023-03-20T01:59:12;9.00;99.90
26954;DHT22;14508;50.924;11.600;2023-03-20T02:01:41;9.00;99.90
26954;DHT22;14508;50.924;11.600;2023-03-20T02:04:13;9.00;99.90
26954;DHT22;14508;50.924;11.600;2023-03-20T02:06:53;9.00;99.90
26954;DHT22;14508;50.924;11.600;2023-03-20T02:09:33;9.00;99.90
26954;DHT22;14508;50.924;11.600;2023-03-20T02:12:07;9.00;99.90
26954;DHT22;14508;50.924;11.600;2023-03-20T02:14:36;9.00;99.90
26954;DHT22;14508;50.924;11.600;2023-03-20T02:17:15;9.10;99.90
26954;DHT22;14508;50.924;11.600;2023-03-20T02:19:54;9.00;99.90
26954;DHT22;14508;50.924;11.600;2023-03-20T02:22:55;9.00;99.90
26954;DHT22;14508;50.924;11.600;2023-03-20T02:25:47;9.00;99.90
26954;DHT22;14508;50.924;11.600;2023-03-20T02:31:41;9.00;99.90
26954;DHT22;14508;50.924;11.600;2023-03-20T02:34:36;9.00;99.90
26954;DHT22;14508;50.924;11.600;2023-03-20T02:37:23;9.10;99.90
26954;DHT22;14508;50.924;11.600;2023-03-20T02:40:06;9.10;99.90
26954;DHT22;14508;50.924;11.600;2023-03-20T02:42:41;9.10;99.90
26954;DHT22;14508;50.924;11.600;2023-03-20T02:45:16;9.10;99.90
26954;DHT22;14508;50.924;11.600;2023-03-20T02:47:58;9.10;99.90
26954;DHT22;14508;50.924;11.600;2023-03-20T02:50:34;9.10;99.90
26954;DHT22;14508;50.924;11.600;2023-03-20T02:53:13;9.00;99.90
26954;DHT22;14508;50.924;11.600;2023-03-20T02:55:48;9.00;99.90
26954;DHT22;14508;50.924;11.600;2023-03-20T02:58:20;9.00;99.90
26954;DHT22;14508;50.924;11.600;2023-03-20T03:00:55;9.00;99.90
26954;DHT22;14508;50.924;11.600;2023-03-20T03:03:28;9.00;99.90
26954;DHT22;14508;50.924;11.600;2023-03-20T03:06:00;9.00;99.90
26954;DHT22;14508;50.924;11.600;2023-03-20T03:08:35;9.00;99.90
26954;DHT22;14508;50.924;11.600;2023-03-20T03:11:05;9.00;99.90
26954;DHT22;14508;50.924;11.600;2023-03-20T03:13:36;9.00;99.90
26954;DHT22;14508;50.924;11.600;2023-03-20T03:16:09;9.00;99.90
26954;DHT22;14508;50.924;11.600;2023-03-20T03:18:38;9.00;99.90
26954;DHT22;14508;50.924;11.600;2023-03-20T03:21:10;9.00;99.90
26954;DHT22;14508;50.924;11.600;2023-03-20T03:23:42;9.00;99.90
26954;DHT22;14508;50.924;11.600;2023-03-20T03:26:17;9.00;99.90
26954;DHT22;14508;50.924;11.600;2023-03-20T03:28:48;9.00;99.90
26954;DHT22;14508;50.924;11.600;2023-03-20T03:31:18;9.00;99.90
26954;DHT22;14508;50.924;11.600;2023-03-20T03:33:49;9.00;99.90
26954;DHT22;14508;50.924;11.600;2023-03-20T03:36:24;9.00;99.90
26954;DHT22;14508;50.924;11.600;2023-03-20T03:38:57;9.00;99.90
26954;DHT22;14508;50.924;11.600;2023-03-20T03:41:29;9.00;99.90
26954;DHT22;14508;50.924;11.600;2023-03-20T03:44:06;9.00;99.90
26954;DHT22;14508;50.924;11.600;2023-03-20T03:46:40;9.00;99.90
26954;DHT22;14508;50.924;11.600;2023-03-20T03:49:14;9.00;99.90
26954;DHT22;14508;50.924;11.600;2023-03-20T03:51:45;9.00;99.90
26954;DHT22;14508;50.924;11.600;2023-03-20T03:54:18;9.00;99.90
26954;DHT22;14508;50.924;11.600;2023-03-20T03:57:08;9.00;99.90
26954;DHT22;14508;50.924;11.600;2023-03-20T03:59:40;9.00;99.90
26954;DHT22;14508;50.924;11.600;2023-03-20T04:02:10;9.00;99.90
26954;DHT22;14508;50.924;11.600;2023-03-20T04:04:44;9.00;99.90
26954;DHT22;14508;50.924;11.600;2023-03-20T04:07:13;9.10;99.90
26954;DHT22;14508;50.924;11.600;2023-03-20T04:09:43;9.10;99.90
26954;DHT22;14508;50.924;11.600;2023-03-20T04:12:31;9.10;99.90
26954;DHT22;14508;50.924;11.600;2023-03-20T04:14:59;9.10;99.90
26954;DHT22;14508;50.924;11.600;2023-03-20T04:17:30;9.10;99.90
26954;DHT22;14508;50.924;11.600;2023-03-20T04:19:59;9.10;99.90
26954;DHT22;14508;50.924;11.600;2023-03-20T04:22:27;9.10;99.90
26954;DHT22;14508;50.924;11.600;2023-03-20T04:25:03;9.10;99.90
26954;DHT22;14508;50.924;11.600;2023-03-20T04:27:32;9.10;99.90
26954;DHT22;14508;50.924;11.600;2023-03-20T04:30:04;9.10;99.90
26954;DHT22;14508;50.924;11.600;2023-03-20T04:33:01;9.10;99.90
26954;DHT22;14508;50.924;11.600;2023-03-20T04:35:43;9.00;99.90
26954;DHT22;14508;50.924;11.600;2023-03-20T04:38:14;9.00;99.90
26954;DHT22;14508;50.924;11.600;2023-03-20T04:40:44;9.10;99.90
26954;DHT22;14508;50.924;11.600;2023-03-20T04:43:13;9.00;99.90
26954;DHT22;14508;50.924;11.600;2023-03-20T04:45:41;9.00;99.90
26954;DHT22;14508;50.924;11.600;2023-03-20T04:48:09;9.00;99.90
26954;DHT22;14508;50.924;11.600;2023-03-20T04:50:38;9.00;99.90
26954;DHT22;14508;50.924;11.600;2023-03-20T04:53:06;9.00;99.90
26954;DHT22;14508;50.924;11.600;2023-03-20T04:55:34;9.00;99.90
26954;DHT22;14508;50.924;11.600;2023-03-20T04:58:04;9.00;99.90
26954;DHT22;14508;50.924;11.600;2023-03-20T05:00:33;9.00;99.90
26954;DHT22;14508;50.924;11.600;2023-03-20T05:03:01;9.00;99.90
26954;DHT22;14508;50.924;11.600;2023-03-20T05:05:29;9.00;99.90
26954;DHT22;14508;50.924;11.600;2023-03-20T05:07:57;9.00;99.90
26954;DHT22;14508;50.924;11.600;2023-03-20T05:10:31;9.00;99.90
26954;DHT22;14508;50.924;11.600;2023-03-20T05:13:07;9.00;99.90
26954;DHT22;14508;50.924;11.600;2023-03-20T05:15:54;9.00;99.90
26954;DHT22;14508;50.924;11.600;2023-03-20T05:18:40;9.00;99.90
26954;DHT22;14508;50.924;11.600;2023-03-20T05:21:25;9.00;99.90
26954;DHT22;14508;50.924;11.600;2023-03-20T05:24:11;9.00;99.90
26954;DHT22;14508;50.924;11.600;2023-03-20T05:26:50;9.00;99.90
26954;DHT22;14508;50.924;11.600;2023-03-20T05:29:40;9.00;99.90
26954;DHT22;14508;50.924;11.600;2023-03-20T05:32:34;9.00;99.90
26954;DHT22;14508;50.924;11.600;2023-03-20T05:35:11;9.00;99.90
26954;DHT22;14508;50.924;11.600;2023-03-20T05:37:45;9.10;99.90
26954;DHT22;14508;50.924;11.600;2023-03-20T05:40:30;9.00;99.90
26954;DHT22;14508;50.924;11.600;2023-03-20T05:43:16;9.00;99.90
26954;DHT22;14508;50.924;11.600;2023-03-20T05:46:03;9.00;99.90
26954;DHT22;14508;50.924;11.600;2023-03-20T05:48:43;9.00;99.90
26954;DHT22;14508;50.924;11.600;2023-03-20T05:51:23;9.10;99.90
26954;DHT22;14508;50.924;11.600;2023-03-20T05:54:02;9.10;99.90
26954;DHT22;14508;50.924;11.600;2023-03-20T05:56:42;9.10;99.90
26954;DHT22;14508;50.924;11.600;2023-03-20T05:59:24;9.10;99.90
26954;DHT22;14508;50.924;11.600;2023-03-20T06:02:11;9.10;99.90
26954;DHT22;14508;50.924;11.600;2023-03-20T06:04:46;9.20;99.90
26954;DHT22;14508;50.924;11.600;2023-03-20T06:07:24;9.20;99.90
26954;DHT22;14508;50.924;11.600;2023-03-20T06:10:01;9.20;99.90
26954;DHT22;14508;50.924;11.600;2023-03-20T06:12:29;9.20;99.90
26954;DHT22;14508;50.924;11.600;2023-03-20T06:14:58;9.30;99.90
26954;DHT22;14508;50.924;11.600;2023-03-20T06:17:33;9.30;99.90
26954;DHT22;14508;50.924;11.600;2023-03-20T06:20:02;9.40;99.90
26954;DHT22;14508;50.924;11.600;2023-03-20T06:22:31;9.50;99.90
26954;DHT22;14508;50.924;11.600;2023-03-20T06:24:59;9.50;99.90
26954;DHT22;14508;50.924;11.600;2023-03-20T06:27:33;9.50;99.90
26954;DHT22;14508;50.924;11.600;2023-03-20T06:30:02;9.50;99.90
26954;DHT22;14508;50.924;11.600;2023-03-20T06:32:34;9.50;99.90
26954;DHT22;14508;50.924;11.600;2023-03-20T06:35:05;9.60;99.90
26954;DHT22;14508;50.924;11.600;2023-03-20T06:37:35;9.60;99.90
26954;DHT22;14508;50.924;11.600;2023-03-20T06:40:10;9.60;99.90
26954;DHT22;14508;50.924;11.600;2023-03-20T06:42:38;9.70;99.90
26954;DHT22;14508;50.924;11.600;2023-03-20T06:45:08;9.80;99.90
26954;DHT22;14508;50.924;11.600;2023-03-20T06:47:45;9.80;99.90
26954;DHT22;14508;50.924;11.600;2023-03-20T06:50:13;9.90;99.90
26954;DHT22;14508;50.924;11.600;2023-03-20T06:52:42;10.00;99.90
26954;DHT22;14508;50.924;11.600;2023-03-20T06:55:29;10.10;99.90
26954;DHT22;14508;50.924;11.600;2023-03-20T06:57:57;10.20;99.90
26954;DHT22;14508;50.924;11.600;2023-03-20T07:00:26;10.20;99.90
26954;DHT22;14508;50.924;11.600;2023-03-20T07:02:57;10.30;99.90
26954;DHT22;14508;50.924;11.600;2023-03-20T07:05:27;10.40;99.90
26954;DHT22;14508;50.924;11.600;2023-03-20T07:07:57;10.50;99.90
26954;DHT22;14508;50.924;11.600;2023-03-20T07:10:25;10.60;99.90
26954;DHT22;14508;50.924;11.600;2023-03-20T07:12:56;10.60;99.90
26954;DHT22;14508;50.924;11.600;2023-03-20T07:15:24;10.70;99.90
26954;DHT22;14508;50.924;11.600;2023-03-20T07:17:52;10.80;99.90
26954;DHT22;14508;50.924;11.600;2023-03-20T07:20:23;10.90;99.90
26954;DHT22;14508;50.924;11.600;2023-03-20T07:22:51;10.80;99.90
26954;DHT22;14508;50.924;11.600;2023-03-20T07:25:24;10.80;99.90
26954;DHT22;14508;50.924;11.600;2023-03-20T07:28:08;10.80;99.90
26954;DHT22;14508;50.924;11.600;2023-03-20T07:30:39;10.90;99.90
26954;DHT22;14508;50.924;11.600;2023-03-20T07:33:08;10.90;99.90
26954;DHT22;14508;50.924;11.600;2023-03-20T07:35:38;10.90;99.90
26954;DHT22;14508;50.924;11.600;2023-03-20T07:38:07;11.00;99.90
26954;DHT22;14508;50.924;11.600;2023-03-20T07:40:47;11.00;99.90
26954;DHT22;14508;50.924;11.600;2023-03-20T07:43:16;11.10;99.90
26954;DHT22;14508;50.924;11.600;2023-03-20T07:46:07;11.20;99.90
26954;DHT22;14508;50.924;11.600;2023-03-20T07:48:37;11.30;99.90
26954;DHT22;14508;50.924;11.600;2023-03-20T07:51:07;11.50;99.90
26954;DHT22;14508;50.924;11.600;2023-03-20T07:53:40;11.70;99.90
26954;DHT22;14508;50.924;11.600;2023-03-20T07:56:09;12.00;99.90
26954;DHT22;14508;50.924;11.600;2023-03-20T07:58:37;12.10;99.90
26954;DHT22;14508;50.924;11.600;2023-03-20T08:01:05;12.20;99.90
26954;DHT22;14508;50.924;11.600;2023-03-20T08:03:33;12.30;99.90
26954;DHT22;14508;50.924;11.600;2023-03-20T08:06:01;12.30;99.90
26954;DHT22;14508;50.924;11.600;2023-03-20T08:08:33;12.20;99.90
26954;DHT22;14508;50.924;11.600;2023-03-20T08:11:01;12.20;99.90
26954;DHT22;14508;50.924;11.600;2023-03-20T08:13:29;12.10;99.90
26954;DHT22;14508;50.924;11.600;2023-03-20T08:15:57;12.10;99.90
26954;DHT22;14508;50.924;11.600;2023-03-20T08:18:25;12.10;99.90
26954;DHT22;14508;50.924;11.600;2023-03-20T08:20:53;12.20;99.90
26954;DHT22;14508;50.924;11.600;2023-03-20T08:23:21;12.20;99.90
26954;DHT22;14508;50.924;11.600;2023-03-20T08:25:51;12.30;99.90
26954;DHT22;14508;50.924;11.600;2023-03-20T08:28:20;12.40;99.90
26954;DHT22;14508;50.924;11.600;2023-03-20T08:31:07;12.60;99.90
26954;DHT22;14508;50.924;11.600;2023-03-20T08:33:35;12.70;99.90
26954;DHT22;14508;50.924;11.600;2023-03-20T08:36:04;12.90;99.90
26954;DHT22;14508;50.924;11.600;2023-03-20T08:38:33;13.00;99.90
26954;DHT22;14508;50.924;11.600;2023-03-20T08:41:03;13.00;99.90
26954;DHT22;14508;50.924;11.600;2023-03-20T08:43:32;13.10;99.90
26954;DHT22;14508;50.924;11.600;2023-03-20T08:46:00;13.20;99.90
26954;DHT22;14508;50.924;11.600;2023-03-20T08:48:28;13.30;99.90
26954;DHT22;14508;50.924;11.600;2023-03-20T08:50:56;13.20;99.90
26954;DHT22;14508;50.924;11.600;2023-03-20T08:53:23;13.10;99.90
26954;DHT22;14508;50.924;11.600;2023-03-20T08:55:52;13.10;99.90
26954;DHT22;14508;50.924;11.600;2023-03-20T08:58:22;13.20;99.90
26954;DHT22;14508;50.924;11.600;2023-03-20T09:00:49;13.30;99.90
26954;DHT22;14508;50.924;11.600;2023-03-20T09:03:19;13.50;99.90
26954;DHT22;14508;50.924;11.600;2023-03-20T09:05:48;13.70;99.90
26954;DHT22;14508;50.924;11.600;2023-03-20T09:08:17;14.00;99.90
26954;DHT22;14508;50.924;11.600;2023-03-20T09:10:46;14.20;99.90
26954;DHT22;14508;50.924;11.600;2023-03-20T09:13:17;14.30;99.90
26954;DHT22;14508;50.924;11.600;2023-03-20T09:15:55;14.40;99.90
26954;DHT22;14508;50.924;11.600;2023-03-20T09:18:23;14.40;99.90
26954;DHT22;14508;50.924;11.600;2023-03-20T09:20:52;14.40;99.90
26954;DHT22;14508;50.924;11.600;2023-03-20T09:23:21;14.30;99.90
26954;DHT22;14508;50.924;11.600;2023-03-20T09:25:49;14.30;99.90
26954;DHT22;14508;50.924;11.600;2023-03-20T09:28:17;14.30;99.90
26954;DHT22;14508;50.924;11.600;2023-03-20T09:30:45;14.30;99.90
26954;DHT22;14508;50.924;11.600;2023-03-20T09:33:14;14.30;99.90
26954;DHT22;14508;50.924;11.600;2023-03-20T09:35:44;14.30;99.90
26954;DHT22;14508;50.924;11.600;2023-03-20T09:38:12;14.30;99.90
26954;DHT22;14508;50.924;11.600;2023-03-20T09:40:49;14.40;99.90
26954;DHT22;14508;50.924;11.600;2023-03-20T09:43:26;14.40;99.90
26954;DHT22;14508;50.924;11.600;2023-03-20T09:46:01;14.30;99.90
26954;DHT22;14508;50.924;11.600;2023-03-20T09:48:34;14.30;99.90
26954;DHT22;14508;50.924;11.600;2023-03-20T09:51:12;14.40;99.90
26954;DHT22;14508;50.924;11.600;2023-03-20T09:53:46;14.30;99.90
26954;DHT22;14508;50.924;11.600;2023-03-20T09:56:19;14.30;99.90
26954;DHT22;14508;50.924;11.600;2023-03-20T09:58:52;14.30;99.90
26954;DHT22;14508;50.924;11.600;2023-03-20T10:01:24;14.30;99.90
26954;DHT22;14508;50.924;11.600;2023-03-20T10:03:56;14.30;99.90
26954;DHT22;14508;50.924;11.600;2023-03-20T10:06:26;14.30;99.90
26954;DHT22;14508;50.924;11.600;2023-03-20T10:08:54;14.30;99.90
26954;DHT22;14508;50.924;11.600;2023-03-20T10:11:43;14.20;99.90
26954;DHT22;14508;50.924;11.600;2023-03-20T10:14:21;14.20;99.90
26954;DHT22;14508;50.924;11.600;2023-03-20T10:17:01;14.20;99.90
26954;DHT22;14508;50.924;11.600;2023-03-20T10:19:37;14.10;99.90
26954;DHT22;14508;50.924;11.600;2023-03-20T10:22:16;14.30;99.90
26954;DHT22;14508;50.924;11.600;2023-03-20T10:24:48;14.40;99.90
26954;DHT22;14508;50.924;11.600;2023-03-20T10:27:22;14.50;99.90
26954;DHT22;14508;50.924;11.600;2023-03-20T10:30:07;14.60;99.90
26954;DHT22;14508;50.924;11.600;2023-03-20T10:32:41;14.60;99.90
26954;DHT22;14508;50.924;11.600;2023-03-20T10:35:21;14.70;99.90
26954;DHT22;14508;50.924;11.600;2023-03-20T10:38:00;14.80;99.90
26954;DHT22;14508;50.924;11.600;2023-03-20T10:40:34;14.90;99.90
26954;DHT22;14508;50.924;11.600;2023-03-20T10:43:08;14.80;99.90
26954;DHT22;14508;50.924;11.600;2023-03-20T10:45:40;14.70;99.90
26954;DHT22;14508;50.924;11.600;2023-03-20T10:48:16;14.50;99.90
26954;DHT22;14508;50.924;11.600;2023-03-20T10:50:49;14.40;99.90
26954;DHT22;14508;50.924;11.600;2023-03-20T10:53:30;14.20;99.90
26954;DHT22;14508;50.924;11.600;2023-03-20T10:56:04;14.20;99.90
26954;DHT22;14508;50.924;11.600;2023-03-20T10:58:36;14.10;99.90
26954;DHT22;14508;50.924;11.600;2023-03-20T11:01:05;14.20;99.90
26954;DHT22;14508;50.924;11.600;2023-03-20T11:03:33;14.30;99.90
26954;DHT22;14508;50.924;11.600;2023-03-20T11:06:14;14.40;99.90
26954;DHT22;14508;50.924;11.600;2023-03-20T11:08:48;14.60;99.90
26954;DHT22;14508;50.924;11.600;2023-03-20T11:11:22;14.60;99.90
26954;DHT22;14508;50.924;11.600;2023-03-20T11:13:50;14.60;99.90
26954;DHT22;14508;50.924;11.600;2023-03-20T11:16:21;14.60;99.90
26954;DHT22;14508;50.924;11.600;2023-03-20T11:18:50;14.50;99.90
26954;DHT22;14508;50.924;11.600;2023-03-20T11:21:22;14.40;99.90
26954;DHT22;14508;50.924;11.600;2023-03-20T11:23:52;14.20;99.90
26954;DHT22;14508;50.924;11.600;2023-03-20T11:26:33;14.20;99.90
26954;DHT22;14508;50.924;11.600;2023-03-20T11:29:04;14.10;99.90
26954;DHT22;14508;50.924;11.600;2023-03-20T11:31:34;14.10;99.90
26954;DHT22;14508;50.924;11.600;2023-03-20T11:34:18;14.20;99.90
26954;DHT22;14508;50.924;11.600;2023-03-20T11:36:55;14.20;99.90
26954;DHT22;14508;50.924;11.600;2023-03-20T11:39:35;14.30;99.90
26954;DHT22;14508;50.924;11.600;2023-03-20T11:42:22;14.50;99.90
26954;DHT22;14508;50.924;11.600;2023-03-20T11:44:57;14.60;99.90
26954;DHT22;14508;50.924;11.600;2023-03-20T11:47:26;14.70;99.90
26954;DHT22;14508;50.924;11.600;2023-03-20T11:49:55;14.80;99.90
26954;DHT22;14508;50.924;11.600;2023-03-20T11:52:27;14.80;99.90
26954;DHT22;14508;50.924;11.600;2023-03-20T11:54:58;14.70;99.90
26954;DHT22;14508;50.924;11.600;2023-03-20T11:57:31;14.80;99.90
26954;DHT22;14508;50.924;11.600;2023-03-20T12:00:03;14.80;99.90
26954;DHT22;14508;50.924;11.600;2023-03-20T12:02:32;14.70;99.90
26954;DHT22;14508;50.924;11.600;2023-03-20T12:05:18;14.60;99.90
26954;DHT22;14508;50.924;11.600;2023-03-20T12:07:48;14.40;99.90
26954;DHT22;14508;50.924;11.600;2023-03-20T12:10:18;14.20;99.90
26954;DHT22;14508;50.924;11.600;2023-03-20T12:12:50;14.00;99.90
26954;DHT22;14508;50.924;11.600;2023-03-20T12:15:24;13.90;99.90
26954;DHT22;14508;50.924;11.600;2023-03-20T12:17:54;13.80;99.90
26954;DHT22;14508;50.924;11.600;2023-03-20T12:20:28;13.80;99.90
26954;DHT22;14508;50.924;11.600;2023-03-20T12:23:02;13.80;99.90
26954;DHT22;14508;50.924;11.600;2023-03-20T12:25:36;13.90;99.90
26954;DHT22;14508;50.924;11.600;2023-03-20T12:28:11;13.90;99.90
26954;DHT22;14508;50.924;11.600;2023-03-20T12:30:50;14.00;99.90
26954;DHT22;14508;50.924;11.600;2023-03-20T12:33:28;13.90;99.90
26954;DHT22;14508;50.924;11.600;2023-03-20T12:36:00;13.70;99.90
26954;DHT22;14508;50.924;11.600;2023-03-20T12:38:31;13.70;99.90
26954;DHT22;14508;50.924;11.600;2023-03-20T12:41:08;13.80;99.90
26954;DHT22;14508;50.924;11.600;2023-03-20T12:44:00;14.00;99.90
26954;DHT22;14508;50.924;11.600;2023-03-20T12:46:38;14.40;99.90
26954;DHT22;14508;50.924;11.600;2023-03-20T12:49:20;14.70;99.90
26954;DHT22;14508;50.924;11.600;2023-03-20T12:51:59;15.00;99.90
26954;DHT22;14508;50.924;11.600;2023-03-20T12:54:42;15.10;99.90
26954;DHT22;14508;50.924;11.600;2023-03-20T12:57:21;15.20;99.90
26954;DHT22;14508;50.924;11.600;2023-03-20T13:00:09;15.10;99.90
26954;DHT22;14508;50.924;11.600;2023-03-20T13:02:49;15.10;99.90
26954;DHT22;14508;50.924;11.600;2023-03-20T13:05:27;15.10;99.90
26954;DHT22;14508;50.924;11.600;2023-03-20T13:10:58;15.00;99.90
26954;DHT22;14508;50.924;11.600;2023-03-20T13:13:34;15.00;99.90
26954;DHT22;14508;50.924;11.600;2023-03-20T13:16:11;14.90;99.90
26954;DHT22;14508;50.924;11.600;2023-03-20T13:18:49;14.80;99.90
26954;DHT22;14508;50.924;11.600;2023-03-20T13:21:24;14.80;99.90
26954;DHT22;14508;50.924;11.600;2023-03-20T13:24:03;14.80;99.90
26954;DHT22;14508;50.924;11.600;2023-03-20T13:26:38;14.80;99.90
26954;DHT22;14508;50.924;11.600;2023-03-20T13:29:14;14.80;99.90
26954;DHT22;14508;50.924;11.600;2023-03-20T13:31:52;14.80;99.90
26954;DHT22;14508;50.924;11.600;2023-03-20T13:34:34;14.80;99.90
26954;DHT22;14508;50.924;11.600;2023-03-20T13:37:09;14.90;99.90
26954;DHT22;14508;50.924;11.600;2023-03-20T13:39:59;15.10;99.90
26954;DHT22;14508;50.924;11.600;2023-03-20T13:42:38;15.10;99.90
26954;DHT22;14508;50.924;11.600;2023-03-20T13:45:20;15.10;99.90
26954;DHT22;14508;50.924;11.600;2023-03-20T13:47:52;15.20;99.90
26954;DHT22;14508;50.924;11.600;2023-03-20T13:50:38;15.20;99.90
26954;DHT22;14508;50.924;11.600;2023-03-20T13:53:16;15.10;99.90
26954;DHT22;14508;50.924;11.600;2023-03-20T13:55:52;15.00;99.90
26954;DHT22;14508;50.924;11.600;2023-03-20T13:58:50;15.10;99.90
26954;DHT22;14508;50.924;11.600;2023-03-20T14:01:23;15.20;99.90
26954;DHT22;14508;50.924;11.600;2023-03-20T14:03:52;15.20;99.90
26954;DHT22;14508;50.924;11.600;2023-03-20T14:06:44;15.20;99.90
26954;DHT22;14508;50.924;11.600;2023-03-20T14:09:25;15.10;99.90
26954;DHT22;14508;50.924;11.600;2023-03-20T14:11:59;15.00;99.90
26954;DHT22;14508;50.924;11.600;2023-03-20T14:14:30;15.00;99.90
26954;DHT22;14508;50.924;11.600;2023-03-20T14:17:06;15.00;99.90
26954;DHT22;14508;50.924;11.600;2023-03-20T14:19:36;15.00;99.90
26954;DHT22;14508;50.924;11.600;2023-03-20T14:22:05;15.00;99.90
26954;DHT22;14508;50.924;11.600;2023-03-20T14:24:35;15.00;99.90
26954;DHT22;14508;50.924;11.600;2023-03-20T14:27:04;15.00;99.90
26954;DHT22;14508;50.924;11.600;2023-03-20T14:29:36;14.90;99.90
26954;DHT22;14508;50.924;11.600;2023-03-20T14:32:31;15.00;99.90
26954;DHT22;14508;50.924;11.600;2023-03-20T14:38:08;15.00;99.90
26954;DHT22;14508;50.924;11.600;2023-03-20T14:40:46;15.10;99.90
26954;DHT22;14508;50.924;11.600;2023-03-20T14:43:29;15.10;99.90
26954;DHT22;14508;50.924;11.600;2023-03-20T14:46:03;15.20;99.90
26954;DHT22;14508;50.924;11.600;2023-03-20T14:48:34;15.20;99.90
26954;DHT22;14508;50.924;11.600;2023-03-20T14:51:13;15.20;99.90
26954;DHT22;14508;50.924;11.600;2023-03-20T14:53:49;15.20;99.90
26954;DHT22;14508;50.924;11.600;2023-03-20T14:56:26;15.20;99.90
26954;DHT22;14508;50.924;11.600;2023-03-20T14:58:58;15.20;99.90
26954;DHT22;14508;50.924;11.600;2023-03-20T15:01:47;15.00;99.50
26954;DHT22;14508;50.924;11.600;2023-03-20T15:04:25;14.90;98.50
26954;DHT22;14508;50.924;11.600;2023-03-20T15:06:57;14.70;99.60
26954;DHT22;14508;50.924;11.600;2023-03-20T15:09:27;14.70;99.90
26954;DHT22;14508;50.924;11.600;2023-03-20T15:11:58;14.60;99.90
26954;DHT22;14508;50.924;11.600;2023-03-20T15:14:34;14.70;99.90
26954;DHT22;14508;50.924;11.600;2023-03-20T15:17:16;14.80;99.90
26954;DHT22;14508;50.924;11.600;2023-03-20T15:19:44;14.90;99.90
26954;DHT22;14508;50.924;11.600;2023-03-20T15:22:15;14.90;99.90
26954;DHT22;14508;50.924;11.600;2023-03-20T15:24:51;14.90;99.90
26954;DHT22;14508;50.924;11.600;2023-03-20T15:27:22;14.90;99.90
26954;DHT22;14508;50.924;11.600;2023-03-20T15:29:54;14.90;99.90
26954;DHT22;14508;50.924;11.600;2023-03-20T15:32:23;15.00;99.90
26954;DHT22;14508;50.924;11.600;2023-03-20T15:34:52;15.00;99.90
26954;DHT22;14508;50.924;11.600;2023-03-20T15:37:22;15.00;99.90
26954;DHT22;14508;50.924;11.600;2023-03-20T15:39:52;14.90;99.90
26954;DHT22;14508;50.924;11.600;2023-03-20T15:42:24;14.80;99.90
26954;DHT22;14508;50.924;11.600;2023-03-20T15:44:53;14.70;99.90
26954;DHT22;14508;50.924;11.600;2023-03-20T15:47:24;14.70;99.90
26954;DHT22;14508;50.924;11.600;2023-03-20T15:49:53;14.60;99.90
26954;DHT22;14508;50.924;11.600;2023-03-20T15:52:28;14.50;99.90
26954;DHT22;14508;50.924;11.600;2023-03-20T15:54:59;14.50;99.90
26954;DHT22;14508;50.924;11.600;2023-03-20T15:57:31;14.50;99.90
26954;DHT22;14508;50.924;11.600;2023-03-20T16:00:03;14.40;99.90
26954;DHT22;14508;50.924;11.600;2023-03-20T16:02:34;14.40;99.90
26954;DHT22;14508;50.924;11.600;2023-03-20T16:05:03;14.50;99.90
26954;DHT22;14508;50.924;11.600;2023-03-20T16:07:31;14.50;99.90
26954;DHT22;14508;50.924;11.600;2023-03-20T16:09:59;14.50;98.50
26954;DHT22;14508;50.924;11.600;2023-03-20T16:12:28;14.40;98.80